Terminal Aerodrome Forecast
Issued by NWS Duluth, MN

Home | Current Version | Previous Version | Text Only | Print | Product List | Glossary On
Versions: 1 2 3 4 5 6 7 8 9 10 11 12 13 14 15 16 17 18 19 20 21 22 23 24 25 26 27 28 29 30 31 32 33 34 35 36 37 38 39 40 41
866
FTUS43 KDLH 090532
TAFDLH
TAF
KDLH 090532Z 0906/1006 34012G20KT P6SM VCSH SCT020 BKN080
      TEMPO 0906/0909 5SM -SN BKN015
     FM091100 34012G20KT P6SM SCT080
     FM091500 35016G23KT P6SM SCT100
     FM100100 34012KT P6SM SCT150=

USA.gov is the U.S. government's official web portal to all federal, state and local government web resources and services.